Time;durP1;ratioP1;P1;durP2;ratioP2;P2;SDS_P1;SDS_P2;PMS_P1;PMS_P2;Temp;Humidity;BMP_temperature;BMP_pressure;BME280_temperature;BME280_humidity;BME280_pressure;Samples;Min_cycle;Max_cycle;Signal;HPM_P1;HPM_P2
2021/04/29 00:00:38;;;;;;;6.95;4.17;;;;;;;1.16;86.61;92719.28;1842225;77;21112;-79
2021/04/29 00:03:06;;;;;;;7.17;4.30;;;;;;;1.14;86.35;92716.97;1848183;77;21471;-79
2021/04/29 00:05:33;;;;;;;6.17;4.42;;;;;;;1.05;86.23;92720.41;1825067;77;21086;-82
2021/04/29 00:08:02;;;;;;;7.65;5.72;;;;;;;0.94;86.39;92719.41;1857567;76;21097;-78
2021/04/29 00:10:32;;;;;;;16.10;10.15;;;;;;;0.85;86.89;92721.53;1834634;77;21084;-79
2021/04/29 00:12:59;;;;;;;18.73;11.97;;;;;;;0.83;87.45;92721.09;1843191;77;21516;-82
2021/04/29 00:15:27;;;;;;;24.52;15.43;;;;;;;0.87;87.51;92725.98;1848734;77;21635;-81
2021/04/29 00:17:54;;;;;;;21.87;11.90;;;;;;;0.92;87.37;92719.00;1855401;76;21472;-78
2021/04/29 00:20:23;;;;;;;24.25;11.15;;;;;;;0.92;87.06;92725.70;1850749;76;21089;-84
2021/04/29 00:22:52;;;;;;;19.55;11.40;;;;;;;0.92;86.63;92721.11;1832109;78;21033;-81
2021/04/29 00:25:20;;;;;;;21.52;13.00;;;;;;;0.89;86.61;92720.47;1832929;78;21361;-79
2021/04/29 00:27:47;;;;;;;21.93;10.15;;;;;;;0.89;86.68;92729.84;1840328;77;21362;-79
2021/04/29 00:30:16;;;;;;;14.25;7.37;;;;;;;0.91;86.62;92720.91;1876239;76;21071;-80
2021/04/29 00:32:44;;;;;;;8.55;4.97;;;;;;;0.89;86.41;92724.48;1853492;76;21032;-81
2021/04/29 00:35:12;;;;;;;9.80;6.00;;;;;;;0.87;86.59;92717.95;1842835;77;21100;-82
2021/04/29 00:37:39;;;;;;;9.58;5.03;;;;;;;0.86;86.70;92729.20;1842791;77;21135;-77
2021/04/29 00:40:08;;;;;;;16.55;9.70;;;;;;;0.84;86.76;92732.03;1842823;77;21350;-80
2021/04/29 00:42:40;;;;;;;21.35;13.83;;;;;;;0.84;86.80;92734.14;1842944;77;21059;-79
2021/04/29 00:45:11;;;;;;;32.38;14.85;;;;;;;0.85;86.78;92737.59;1843048;77;21135;-79
2021/04/29 00:47:39;;;;;;;22.25;13.80;;;;;;;0.82;86.45;92732.93;1842811;77;21087;-83
2021/04/29 00:50:11;;;;;;;21.70;11.63;;;;;;;0.76;86.48;92729.00;1842964;77;21029;-78
2021/04/29 00:52:39;;;;;;;15.35;8.85;;;;;;;0.70;86.58;92729.81;1843131;77;21197;-80
2021/04/29 00:55:08;;;;;;;7.70;5.05;;;;;;;0.68;86.93;92725.39;1842743;77;21523;-82
2021/04/29 00:57:35;;;;;;;6.50;4.53;;;;;;;0.67;86.96;92735.30;1843122;77;21036;-83
2021/04/29 01:00:06;;;;;;;7.47;4.35;;;;;;;0.65;86.82;92727.42;1843021;77;21491;-80
2021/04/29 01:02:52;;;;;;;5.67;4.67;;;;;;;0.55;86.66;92727.95;1841692;77;21208;-80
2021/04/29 01:05:23;;;;;;;3.55;3.20;;;;;;;0.43;87.12;92728.84;1842982;77;21178;-77
2021/04/29 01:07:56;;;;;;;6.15;3.95;;;;;;;0.35;87.78;92725.80;1842838;77;21136;-81
2021/04/29 01:10:30;;;;;;;5.60;4.20;;;;;;;0.33;88.40;92730.70;1842931;77;21498;-77
2021/04/29 01:13:12;;;;;;;4.97;3.50;;;;;;;0.36;88.91;92734.03;1843243;77;21155;-83
2021/04/29 01:15:42;;;;;;;13.40;4.15;;;;;;;0.38;88.78;92726.45;1844859;77;21067;-78
2021/04/29 01:18:10;;;;;;;8.00;5.10;;;;;;;0.35;88.88;92727.91;1843349;76;22269;-77
2021/04/29 01:21:01;;;;;;;19.02;11.18;;;;;;;0.38;88.98;92727.22;1842699;77;21147;-76
2021/04/29 01:23:58;;;;;;;21.68;13.18;;;;;;;0.40;88.79;92723.62;1845485;77;21163;-80
2021/04/29 01:26:39;;;;;;;21.23;12.68;;;;;;;0.41;88.53;92725.16;1848431;77;21460;-80
2021/04/29 01:29:08;;;;;;;19.85;12.70;;;;;;;0.40;88.26;92726.30;1848562;77;21464;-82
2021/04/29 01:31:38;;;;;;;28.30;14.65;;;;;;;0.40;88.12;92725.52;1825526;77;21362;-79
2021/04/29 01:34:07;;;;;;;31.95;13.95;;;;;;;0.39;87.94;92729.33;1852887;77;21629;-78
2021/04/29 01:36:35;;;;;;;27.90;13.43;;;;;;;0.39;88.07;92723.41;1848583;77;21546;-78
2021/04/29 01:39:08;;;;;;;16.45;10.88;;;;;;;0.43;87.91;92726.17;1847542;77;21491;-83
2021/04/29 01:41:38;;;;;;;7.05;5.22;;;;;;;0.45;87.58;92722.57;1865492;76;21091;-81
2021/04/29 01:44:07;;;;;;;8.68;4.90;;;;;;;0.37;87.64;92719.53;1867495;76;21606;-81
2021/04/29 01:46:35;;;;;;;5.53;4.30;;;;;;;0.30;88.19;92717.48;1841864;77;21479;-82
2021/04/29 01:49:03;;;;;;;4.95;3.67;;;;;;;0.27;88.48;92710.72;1847285;77;21473;-81
2021/04/29 01:51:31;;;;;;;4.47;4.03;;;;;;;0.28;88.67;92713.59;1842662;77;21111;-82
2021/04/29 01:54:02;;;;;;;6.05;3.65;;;;;;;0.26;88.84;92712.59;1842798;77;21096;-83
2021/04/29 01:56:30;;;;;;;7.08;3.98;;;;;;;0.27;88.78;92703.47;1842773;77;21598;-79
2021/04/29 01:58:58;;;;;;;6.00;4.17;;;;;;;0.23;88.81;92702.62;1843897;77;21068;-80
2021/04/29 02:01:28;;;;;;;5.37;3.85;;;;;;;0.26;88.81;92699.78;1848461;77;21033;-80
2021/04/29 02:03:56;;;;;;;6.70;3.45;;;;;;;0.26;88.27;92699.78;1844760;77;21463;-77
2021/04/29 02:06:24;;;;;;;3.87;3.47;;;;;;;0.23;88.07;92698.61;1781023;80;21092;-76
2021/04/29 02:08:52;;;;;;;9.13;4.05;;;;;;;0.22;88.30;92693.80;1853225;77;22306;-80
2021/04/29 02:11:19;;;;;;;15.13;8.85;;;;;;;0.25;88.46;92696.34;1820293;77;21088;-80
2021/04/29 02:13:49;;;;;;;20.00;10.90;;;;;;;0.27;88.68;92693.34;1812103;78;21035;-80
2021/04/29 02:16:34;;;;;;;18.57;11.68;;;;;;;0.29;88.64;92695.09;1802903;79;21476;-82
2021/04/29 02:19:02;;;;;;;18.60;11.12;;;;;;;0.30;88.61;92692.08;1844375;77;23958;-77
2021/04/29 02:21:29;;;;;;;21.45;12.60;;;;;;;0.35;88.73;92695.05;1847777;77;21550;-76
2021/04/29 02:23:57;;;;;;;21.20;10.68;;;;;;;0.35;88.67;92691.80;1829394;77;21105;-79
2021/04/29 02:26:24;;;;;;;18.52;11.93;;;;;;;0.40;88.82;92689.41;1863819;76;21029;-83
2021/04/29 02:28:52;;;;;;;15.08;9.13;;;;;;;0.48;88.89;92688.44;1831994;78;21132;-81
2021/04/29 02:31:19;;;;;;;19.37;9.18;;;;;;;0.57;88.91;92689.60;1832183;78;21120;-79
2021/04/29 02:33:46;;;;;;;10.95;6.80;;;;;;;0.61;88.80;92687.21;1831237;78;21305;-83
2021/04/29 02:36:14;;;;;;;15.50;8.55;;;;;;;0.62;88.82;92683.97;1826397;77;21081;-80
2021/04/29 02:38:42;;;;;;;10.53;6.12;;;;;;;0.61;89.10;92685.88;1826458;78;21045;-80
2021/04/29 02:41:10;;;;;;;13.93;7.45;;;;;;;0.68;89.29;92682.02;1826515;78;21599;-80
2021/04/29 02:43:38;;;;;;;6.60;5.22;;;;;;;0.75;89.08;92687.28;1826465;78;21171;-81
2021/04/29 02:46:05;;;;;;;5.97;4.58;;;;;;;0.76;88.58;92683.50;1826392;78;21186;-83
2021/04/29 02:48:34;;;;;;;11.00;7.25;;;;;;;0.79;88.55;92688.93;1831215;78;21073;-79
2021/04/29 02:51:02;;;;;;;20.32;10.35;;;;;;;0.84;88.47;92683.85;1841298;77;21067;-83
2021/04/29 02:53:31;;;;;;;13.62;8.08;;;;;;;0.86;88.14;92680.25;1825907;77;21150;-80
2021/04/29 02:55:59;;;;;;;14.87;7.90;;;;;;;0.87;87.84;92676.46;1823572;78;21548;-79
2021/04/29 02:58:26;;;;;;;17.45;10.00;;;;;;;0.85;87.73;92680.81;1823312;78;21439;-80
2021/04/29 03:00:54;;;;;;;17.75;9.10;;;;;;;0.81;87.60;92681.30;1810725;78;21086;-77
2021/04/29 03:03:22;;;;;;;16.50;9.43;;;;;;;0.80;87.78;92683.01;1808891;79;21039;-78
2021/04/29 03:05:49;;;;;;;20.40;9.95;;;;;;;0.79;87.88;92686.25;1808836;79;21093;-78
2021/04/29 03:08:18;;;;;;;19.52;9.78;;;;;;;0.81;87.95;92680.53;1808835;79;21109;-79
2021/04/29 03:10:45;;;;;;;13.78;7.45;;;;;;;0.82;88.09;92678.06;1808994;79;21195;-81
2021/04/29 03:13:12;;;;;;;14.93;5.53;;;;;;;0.84;88.17;92680.61;1808585;79;21577;-76
2021/04/29 03:15:41;;;;;;;10.72;6.25;;;;;;;0.85;88.20;92686.73;1808888;79;21109;-82
2021/04/29 03:18:08;;;;;;;11.35;7.20;;;;;;;0.84;88.50;92684.63;1807964;78;21186;-78
2021/04/29 03:20:39;;;;;;;15.30;7.75;;;;;;;0.86;88.60;92682.92;1808441;77;21196;-82
2021/04/29 03:23:06;;;;;;;12.45;7.42;;;;;;;0.86;88.66;92679.68;1808777;79;21210;-81
2021/04/29 03:25:34;;;;;;;9.38;5.53;;;;;;;0.87;88.64;92685.83;1809113;79;21078;-79
2021/04/29 03:28:01;;;;;;;9.20;5.10;;;;;;;0.89;88.64;92688.92;1809034;79;21121;-81
2021/04/29 03:30:30;;;;;;;8.80;4.58;;;;;;;0.92;88.55;92686.88;1809045;77;21090;-82
2021/04/29 03:32:58;;;;;;;6.42;4.05;;;;;;;0.94;88.58;92680.05;1808915;79;21157;-79
2021/04/29 03:35:27;;;;;;;6.47;3.60;;;;;;;1.02;88.95;92686.89;1808912;79;21804;-79
2021/04/29 03:37:55;;;;;;;9.80;5.58;;;;;;;1.07;89.17;92687.94;1809337;79;21067;-81
2021/04/29 03:40:22;;;;;;;13.85;7.87;;;;;;;1.09;89.20;92683.79;1808851;78;21154;-81
2021/04/29 03:42:52;;;;;;;18.40;10.13;;;;;;;1.12;89.45;92684.40;1808856;79;21058;-79
2021/04/29 03:45:21;;;;;;;10.58;6.20;;;;;;;1.14;89.15;92686.74;1809009;79;21157;-80
2021/04/29 03:47:49;;;;;;;16.10;8.33;;;;;;;1.18;89.27;92686.24;1809129;79;21365;-81
2021/04/29 03:50:17;;;;;;;15.10;8.08;;;;;;;1.22;89.32;92691.10;1809053;79;21090;-81
2021/04/29 03:52:44;;;;;;;10.93;6.67;;;;;;;1.26;89.23;92685.81;1809169;79;21493;-84
2021/04/29 03:55:11;;;;;;;13.18;7.90;;;;;;;1.30;89.31;92684.74;1808927;78;21580;-78
2021/04/29 03:57:39;;;;;;;17.82;10.05;;;;;;;1.37;89.41;92685.45;1808913;79;21149;-79
2021/04/29 04:00:08;;;;;;;21.62;10.93;;;;;;;1.39;89.08;92686.66;1809090;79;21491;-81
2021/04/29 04:02:36;;;;;;;11.35;7.17;;;;;;;1.44;89.29;92686.92;1809156;79;21067;-79
2021/04/29 04:05:06;;;;;;;13.45;8.45;;;;;;;1.53;89.22;92687.45;1809108;79;21066;-79
2021/04/29 04:07:34;;;;;;;11.25;6.85;;;;;;;1.59;88.93;92687.38;1809164;79;21141;-81
2021/04/29 04:10:01;;;;;;;11.63;7.03;;;;;;;1.65;89.09;92686.51;1809189;77;21573;-82
2021/04/29 04:12:30;;;;;;;12.37;8.03;;;;;;;1.70;89.09;92688.91;1809065;79;21186;-79
2021/04/29 04:14:58;;;;;;;14.98;9.35;;;;;;;1.77;88.88;92684.22;1808878;79;21184;-76
2021/04/29 04:17:25;;;;;;;13.58;8.73;;;;;;;1.82;88.81;92682.03;1808973;79;21160;-80
2021/04/29 04:19:54;;;;;;;12.23;6.80;;;;;;;1.93;89.08;92680.88;1804507;79;21035;-81
2021/04/29 04:22:22;;;;;;;10.05;6.62;;;;;;;2.13;89.05;92679.65;1808741;79;21647;-82
2021/04/29 04:24:49;;;;;;;12.88;7.87;;;;;;;2.31;88.47;92677.81;1808929;79;21433;-79
2021/04/29 04:27:17;;;;;;;12.10;7.15;;;;;;;2.48;88.00;92671.14;1808944;79;21066;-82
2021/04/29 04:29:44;;;;;;;16.75;8.48;;;;;;;2.84;88.52;92671.06;1809127;79;21636;-80
2021/04/29 04:32:11;;;;;;;15.95;10.55;;;;;;;3.40;87.89;92666.93;1809173;79;21141;-79
2021/04/29 04:34:39;;;;;;;17.12;9.68;;;;;;;3.91;85.45;92665.48;1809160;79;21110;-82
2021/04/29 04:37:06;;;;;;;21.68;13.03;;;;;;;4.10;81.80;92672.02;1808943;79;21204;-80
2021/04/29 04:39:36;;;;;;;21.05;11.83;;;;;;;4.02;81.22;92669.05;1808744;79;21059;-80
2021/04/29 04:42:04;;;;;;;16.55;11.90;;;;;;;3.87;80.75;92675.44;1809099;79;21489;-80
2021/04/29 04:44:32;;;;;;;17.92;11.50;;;;;;;3.72;81.11;92665.12;1808968;79;21169;-79
2021/04/29 04:46:59;;;;;;;18.32;10.88;;;;;;;3.68;81.77;92668.92;1809221;79;21121;-82
2021/04/29 04:49:28;;;;;;;17.60;11.20;;;;;;;3.96;82.86;92677.84;1808955;79;21364;-80
2021/04/29 04:51:56;;;;;;;18.35;11.22;;;;;;;4.32;81.20;92667.55;1809085;79;21501;-77
2021/04/29 04:54:26;;;;;;;17.17;7.97;;;;;;;4.51;80.18;92665.76;1808955;78;21046;-84
2021/04/29 04:56:53;;;;;;;13.83;9.98;;;;;;;4.55;79.93;92667.34;1809015;79;21232;-78
2021/04/29 04:59:20;;;;;;;13.55;9.13;;;;;;;4.56;80.30;92670.23;1809104;79;21181;-78
2021/04/29 05:01:48;;;;;;;14.53;8.75;;;;;;;4.57;80.49;92674.46;1808908;79;21368;-81
2021/04/29 05:04:16;;;;;;;15.90;9.88;;;;;;;4.62;79.89;92676.02;1808036;79;21185;-80
2021/04/29 05:06:46;;;;;;;17.27;10.23;;;;;;;4.59;79.83;92672.18;1809016;79;21046;-83
2021/04/29 05:09:13;;;;;;;19.02;10.68;;;;;;;4.76;80.33;92673.42;1808992;79;21058;-78
2021/04/29 05:11:41;;;;;;;17.05;10.78;;;;;;;5.01;79.97;92672.80;1808849;79;21102;-81
2021/04/29 05:14:08;;;;;;;15.83;11.03;;;;;;;5.18;79.28;92672.09;1809018;79;21422;-85
2021/04/29 05:16:37;;;;;;;15.58;9.93;;;;;;;5.25;78.11;92674.05;1808805;79;21173;-79
2021/04/29 05:19:05;;;;;;;17.50;10.38;;;;;;;5.22;78.43;92665.37;1809018;79;21102;-81
2021/04/29 05:21:33;;;;;;;15.88;9.10;;;;;;;5.20;78.64;92676.54;1808942;79;21078;-81
2021/04/29 05:24:00;;;;;;;13.70;9.43;;;;;;;5.15;79.02;92678.81;1808426;79;21412;-79
2021/04/29 05:26:27;;;;;;;19.20;8.98;;;;;;;5.04;78.93;92675.52;1809142;79;21429;-79
2021/04/29 05:28:55;;;;;;;13.93;8.88;;;;;;;4.95;79.49;92675.06;1808903;78;21094;-83
2021/04/29 05:31:22;;;;;;;14.18;7.85;;;;;;;4.94;80.31;92675.45;1808920;79;21050;-80
2021/04/29 05:33:49;;;;;;;12.63;8.08;;;;;;;4.92;79.95;92675.05;1808967;79;21106;-84
2021/04/29 05:36:18;;;;;;;13.05;8.63;;;;;;;4.88;80.13;92675.02;1808146;77;21200;-78
2021/04/29 05:38:46;;;;;;;13.40;8.00;;;;;;;4.82;80.43;92684.05;1808823;77;21357;-82
2021/04/29 05:41:13;;;;;;;11.73;8.23;;;;;;;4.78;80.70;92677.10;1809095;79;21062;-80
2021/04/29 05:43:41;;;;;;;23.83;9.35;;;;;;;4.76;80.95;92676.69;1808969;79;21517;-82
2021/04/29 05:46:08;;;;;;;18.42;8.90;;;;;;;4.74;81.25;92680.33;1808984;79;21122;-78
2021/04/29 05:48:37;;;;;;;12.28;9.65;;;;;;;4.75;81.37;92681.89;1808742;79;21077;-79
2021/04/29 05:51:05;;;;;;;11.53;8.15;;;;;;;4.75;81.42;92679.20;1808883;79;21433;-78
2021/04/29 05:53:32;;;;;;;13.15;8.73;;;;;;;4.79;81.56;92683.45;1808710;79;21054;-80
2021/04/29 05:55:59;;;;;;;12.05;8.28;;;;;;;4.83;82.01;92681.55;1808424;79;21121;-81
2021/04/29 05:58:27;;;;;;;15.45;9.20;;;;;;;4.91;82.05;92682.36;1808859;79;21177;-83
2021/04/29 06:00:55;;;;;;;15.35;9.78;;;;;;;4.99;81.62;92696.06;1808285;79;21161;-82
2021/04/29 06:03:23;;;;;;;11.97;8.53;;;;;;;5.05;81.40;92697.84;1807529;79;21658;-78
2021/04/29 06:05:50;;;;;;;11.25;7.37;;;;;;;5.09;81.27;92699.97;1807901;79;21527;-82
2021/04/29 06:08:18;;;;;;;12.45;7.67;;;;;;;5.15;81.34;92697.67;1808766;78;21157;-79
2021/04/29 06:10:45;;;;;;;10.55;8.05;;;;;;;5.25;81.60;92706.39;1808723;79;21505;-85
2021/04/29 06:13:12;;;;;;;13.28;7.97;;;;;;;5.36;81.25;92705.28;1808466;79;21046;-82
2021/04/29 06:15:40;;;;;;;20.27;10.75;;;;;;;5.47;81.12;92704.56;1807299;79;21652;-80
2021/04/29 06:18:07;;;;;;;14.65;8.98;;;;;;;5.59;80.95;92699.59;1807289;79;21181;-79
2021/04/29 06:20:35;;;;;;;20.97;12.13;;;;;;;5.72;80.48;92693.86;1807835;78;21628;-82
2021/04/29 06:23:02;;;;;;;16.30;10.40;;;;;;;5.82;80.19;92693.86;1808294;78;21134;-79
2021/04/29 06:25:32;;;;;;;16.07;10.18;;;;;;;5.94;80.06;92693.34;1808833;78;21544;-77
2021/04/29 06:27:59;;;;;;;13.72;8.65;;;;;;;6.03;79.49;92694.52;1808677;79;21364;-82
2021/04/29 06:30:27;;;;;;;14.73;9.50;;;;;;;6.14;79.47;92689.72;1807300;79;21337;-80
2021/04/29 06:32:54;;;;;;;14.90;8.58;;;;;;;6.24;79.02;92692.44;1807340;79;21164;-80
2021/04/29 06:35:22;;;;;;;11.93;7.45;;;;;;;6.32;78.85;92688.58;1808255;79;21066;-79
2021/04/29 06:37:50;;;;;;;10.88;7.50;;;;;;;6.40;78.33;92686.65;1808849;79;21224;-80
2021/04/29 06:40:17;;;;;;;14.13;9.38;;;;;;;6.48;78.11;92692.23;1808792;79;21638;-82
2021/04/29 06:42:45;;;;;;;17.00;11.28;;;;;;;6.54;77.99;92688.55;1808528;78;21078;-80
2021/04/29 06:45:14;;;;;;;20.23;14.03;;;;;;;6.61;77.81;92693.19;1808562;79;21485;-82
2021/04/29 06:47:41;;;;;;;16.77;10.75;;;;;;;6.65;77.76;92692.60;1800802;79;21196;-79
2021/04/29 06:50:10;;;;;;;13.72;9.88;;;;;;;6.71;77.56;92692.41;1806936;78;21779;-82
2021/04/29 06:52:37;;;;;;;17.00;10.93;;;;;;;6.76;77.45;92686.02;1806567;79;21700;-79
2021/04/29 06:55:06;;;;;;;20.57;11.60;;;;;;;6.80;77.04;92686.78;1807383;78;21637;-81
2021/04/29 06:57:33;;;;;;;18.00;10.68;;;;;;;6.83;76.69;92689.30;1807220;77;21347;-78
2021/04/29 07:00:00;;;;;;;16.17;11.28;;;;;;;6.89;77.07;92695.09;1807218;79;21177;-80
2021/04/29 07:02:28;;;;;;;18.15;12.13;;;;;;;6.98;77.42;92690.05;1807645;78;21197;-79
2021/04/29 07:04:57;;;;;;;16.60;11.03;;;;;;;7.05;76.55;92694.09;1806859;79;21314;-81
2021/04/29 07:07:25;;;;;;;16.97;10.88;;;;;;;7.10;76.49;92695.62;1808571;79;21063;-81
2021/04/29 07:09:52;;;;;;;13.10;9.18;;;;;;;7.19;76.35;92696.77;1808722;77;21059;-78
2021/04/29 07:12:19;;;;;;;15.38;9.80;;;;;;;7.31;76.45;92696.91;1808463;79;21105;-83
2021/04/29 07:14:47;;;;;;;18.87;10.63;;;;;;;7.48;76.57;92695.30;1808774;79;21058;-82
2021/04/29 07:17:16;;;;;;;20.55;11.95;;;;;;;7.71;76.12;92692.89;1807888;79;21376;-83
2021/04/29 07:19:44;;;;;;;15.72;10.00;;;;;;;7.91;75.12;92694.52;1808434;79;21142;-82
2021/04/29 07:22:11;;;;;;;12.95;8.65;;;;;;;8.09;74.58;92697.72;1808142;79;21134;-82
2021/04/29 07:24:39;;;;;;;13.30;8.43;;;;;;;8.23;73.47;92695.66;1808603;78;21109;-84
2021/04/29 07:27:06;;;;;;;14.50;9.28;;;;;;;8.38;73.26;92695.60;1808607;79;21039;-79
2021/04/29 07:29:36;;;;;;;14.03;9.55;;;;;;;8.55;73.38;92700.13;1808670;79;21333;-85
2021/04/29 07:32:05;;;;;;;10.70;7.60;;;;;;;8.72;73.14;92701.14;1808457;78;21072;-80
2021/04/29 07:34:32;;;;;;;10.98;8.05;;;;;;;8.90;71.76;92696.92;1808557;79;21043;-80
2021/04/29 07:37:00;;;;;;;9.60;6.55;;;;;;;9.01;71.21;92700.30;1808613;79;21133;-84
2021/04/29 07:39:28;;;;;;;13.85;9.53;;;;;;;9.10;70.63;92700.62;1808513;79;21441;-80
2021/04/29 07:41:56;;;;;;;13.13;8.40;;;;;;;9.16;70.59;92701.70;1808587;79;21350;-78
2021/04/29 07:44:23;;;;;;;12.88;7.83;;;;;;;9.20;70.05;92695.65;1807699;79;21181;-83
2021/04/29 07:46:51;;;;;;;9.80;7.03;;;;;;;9.28;70.54;92695.58;1808801;79;21663;-83
2021/04/29 07:49:19;;;;;;;9.50;7.03;;;;;;;9.41;71.09;92696.61;1808388;79;21106;-82
2021/04/29 07:51:46;;;;;;;9.88;6.92;;;;;;;9.55;69.99;92697.02;1808665;79;21133;-78
2021/04/29 07:54:14;;;;;;;11.28;7.03;;;;;;;9.65;69.41;92702.92;1808684;79;21477;-84
2021/04/29 07:56:43;;;;;;;17.52;11.08;;;;;;;9.71;69.11;92699.36;1808228;79;21086;-84
2021/04/29 07:59:10;;;;;;;11.08;7.97;;;;;;;9.79;68.79;92708.18;1808493;79;21189;-80
2021/04/29 08:01:40;;;;;;;10.75;6.90;;;;;;;9.85;68.70;92702.46;1807691;79;21153;-85
2021/04/29 08:04:07;;;;;;;14.70;7.28;;;;;;;9.96;68.64;92700.38;1808501;79;21517;-78
2021/04/29 08:06:36;;;;;;;23.40;10.53;;;;;;;10.04;68.32;92698.36;1808565;78;21358;-78
2021/04/29 08:09:04;;;;;;;15.85;9.73;;;;;;;10.13;68.27;92705.41;1850485;77;21167;-78
2021/04/29 08:11:31;;;;;;;12.47;9.18;;;;;;;10.21;69.11;92707.44;1825886;77;21098;-79
2021/04/29 08:13:58;;;;;;;12.55;8.20;;;;;;;10.31;68.91;92701.12;1813241;78;21580;-78
2021/04/29 08:16:26;;;;;;;11.90;9.05;;;;;;;10.40;68.06;92705.44;1842181;77;21200;-85
2021/04/29 08:18:56;;;;;;;11.83;8.70;;;;;;;10.45;67.55;92706.91;1844841;77;21390;-84
2021/04/29 08:21:27;;;;;;;9.60;6.90;;;;;;;10.50;67.45;92708.42;1843562;77;21779;-83
2021/04/29 08:23:57;;;;;;;12.93;8.08;;;;;;;10.53;67.52;92714.37;1846537;77;21183;-85
2021/04/29 08:26:25;;;;;;;8.93;7.40;;;;;;;10.57;67.66;92713.72;1848440;77;21053;-82
2021/04/29 08:28:55;;;;;;;17.23;8.10;;;;;;;10.61;67.79;92702.23;1848446;77;21055;-84
2021/04/29 08:31:23;;;;;;;13.30;7.45;;;;;;;10.68;68.02;92704.81;1847581;77;21476;-85
2021/04/29 08:33:50;;;;;;;14.50;7.87;;;;;;;10.73;67.96;92709.04;1847087;77;21167;-84
2021/04/29 08:36:18;;;;;;;10.55;7.53;;;;;;;10.78;67.57;92707.20;1848580;77;21068;-82
2021/04/29 08:38:45;;;;;;;13.05;8.63;;;;;;;10.81;67.91;92709.86;1848367;77;21156;-82
2021/04/29 08:41:15;;;;;;;16.37;7.85;;;;;;;10.83;67.88;92711.59;1847639;77;21226;-82
2021/04/29 08:43:44;;;;;;;11.55;7.75;;;;;;;10.84;67.59;92715.84;1846688;77;21191;-82
2021/04/29 08:46:11;;;;;;;9.90;6.80;;;;;;;10.83;67.49;92714.31;1846848;77;21238;-82
2021/04/29 08:48:38;;;;;;;8.53;5.90;;;;;;;10.82;67.64;92720.91;1846838;77;21167;-84
2021/04/29 08:51:06;;;;;;;9.55;5.90;;;;;;;10.84;67.51;92704.20;1847004;77;21183;-82
2021/04/29 08:53:37;;;;;;;8.85;5.67;;;;;;;10.86;67.44;92702.58;1814509;77;21111;-84
2021/04/29 08:56:04;;;;;;;9.38;6.15;;;;;;;10.88;67.01;92704.31;1848356;77;21330;-82
2021/04/29 08:58:32;;;;;;;18.05;10.18;;;;;;;10.90;66.94;92707.37;1848293;77;21139;-83
2021/04/29 09:01:04;;;;;;;15.90;9.13;;;;;;;10.92;67.21;92702.30;1847666;77;21144;-83
2021/04/29 09:03:34;;;;;;;12.10;7.28;;;;;;;10.97;67.30;92701.64;1848424;77;21036;-83
2021/04/29 09:06:06;;;;;;;14.45;8.33;;;;;;;11.00;66.82;92705.66;1848316;77;21121;-82
2021/04/29 09:08:36;;;;;;;18.55;10.55;;;;;;;11.00;66.56;92705.66;1848399;77;21084;-80
2021/04/29 09:11:15;;;;;;;18.52;9.20;;;;;;;11.02;66.46;92700.59;1868680;75;21178;-78
2021/04/29 09:13:59;;;;;;;15.83;7.85;;;;;;;11.06;66.77;92712.17;1873692;75;21202;-77
2021/04/29 09:16:44;;;;;;;14.45;7.90;;;;;;;11.13;66.24;92704.47;1826220;77;21776;-77
2021/04/29 09:19:22;;;;;;;15.45;7.30;;;;;;;11.24;66.65;92702.92;1843312;77;21028;-80
2021/04/29 09:21:51;;;;;;;8.85;5.95;;;;;;;11.34;66.63;92703.33;1799608;79;22261;-77
2021/04/29 09:24:18;;;;;;;11.53;5.55;;;;;;;11.51;66.29;92704.96;1832265;78;21184;-82
2021/04/29 09:26:45;;;;;;;10.82;6.33;;;;;;;11.63;64.88;92709.78;1796559;77;21171;-81
2021/04/29 09:29:16;;;;;;;7.80;5.12;;;;;;;11.70;65.15;92703.43;1847859;77;21063;-78
2021/04/29 09:31:47;;;;;;;8.85;5.75;;;;;;;11.81;64.64;92705.35;1842268;77;21492;-77
2021/04/29 09:34:18;;;;;;;8.33;5.30;;;;;;;11.88;64.36;92709.33;1812173;78;21395;-79
2021/04/29 09:36:44;;;;;;;10.13;6.33;;;;;;;11.91;64.31;92715.27;1816769;79;21528;-83
2021/04/29 09:39:17;;;;;;;8.75;6.25;;;;;;;11.91;64.23;92711.19;1816176;79;21482;-81
2021/04/29 09:41:50;;;;;;;8.00;6.37;;;;;;;11.94;64.26;92703.38;1815783;79;21655;-79
2021/04/29 09:44:24;;;;;;;10.45;5.53;;;;;;;11.96;64.26;92704.50;1814827;79;21197;-81
2021/04/29 09:47:03;;;;;;;7.85;5.85;;;;;;;11.97;64.17;92703.90;1814307;79;21160;-78
2021/04/29 09:49:40;;;;;;;10.98;6.58;;;;;;;11.93;63.15;92694.44;1822914;76;21292;-79
2021/04/29 09:52:13;;;;;;;14.98;7.15;;;;;;;11.84;63.17;92699.07;1870999;76;21693;-80
2021/04/29 09:54:41;;;;;;;10.85;6.80;;;;;;;11.79;64.31;92695.45;1812421;79;21185;-81
2021/04/29 09:57:12;;;;;;;9.98;6.08;;;;;;;11.78;63.95;92686.35;1829531;76;21164;-82
2021/04/29 09:59:42;;;;;;;8.10;5.62;;;;;;;11.81;64.24;92689.58;1837843;76;22003;-82
2021/04/29 10:02:11;;;;;;;10.25;6.62;;;;;;;11.85;63.39;92685.64;1840822;76;21175;-80
2021/04/29 10:04:39;;;;;;;8.28;5.40;;;;;;;11.90;63.08;92694.67;1848471;76;21397;-80
2021/04/29 10:07:08;;;;;;;11.05;6.62;;;;;;;12.00;62.61;92690.77;1877057;76;21206;-79
2021/04/29 10:09:39;;;;;;;9.68;6.05;;;;;;;12.10;62.98;92699.33;1844057;76;21128;-79
2021/04/29 10:12:08;;;;;;;12.00;6.95;;;;;;;12.26;63.18;92686.33;1842243;77;21244;-81
2021/04/29 10:14:48;;;;;;;8.98;6.72;;;;;;;12.40;62.83;92680.56;1844566;77;21159;-81
2021/04/29 10:17:18;;;;;;;25.02;13.75;;;;;;;12.55;62.73;92677.68;1833092;77;21172;-82
2021/04/29 10:19:57;;;;;;;19.48;9.60;;;;;;;12.76;62.90;92676.42;1806278;78;21255;-81
2021/04/29 10:22:26;;;;;;;15.40;8.83;;;;;;;13.07;62.75;92674.09;1819027;78;21619;-78
2021/04/29 10:24:53;;;;;;;11.03;6.40;;;;;;;13.33;61.24;92671.52;1812040;79;21848;-78
2021/04/29 10:27:26;;;;;;;8.70;6.03;;;;;;;13.50;61.00;92673.02;1821192;78;21172;-82
2021/04/29 10:30:09;;;;;;;11.38;5.75;;;;;;;13.69;60.09;92669.18;1821156;78;21093;-84
2021/04/29 10:32:37;;;;;;;12.18;7.00;;;;;;;13.78;58.88;92663.87;1814352;77;21108;-81
2021/04/29 10:35:22;;;;;;;9.00;5.90;;;;;;;13.78;59.11;92656.44;1781886;80;21062;-78
2021/04/29 10:38:01;;;;;;;7.60;5.62;;;;;;;13.85;58.67;92651.38;1811050;79;21354;-80
2021/04/29 10:40:37;;;;;;;9.33;5.72;;;;;;;13.93;58.44;92651.94;1766933;80;21196;-80
2021/04/29 10:43:05;;;;;;;9.65;6.20;;;;;;;14.09;57.15;92648.50;1799987;78;21143;-80
2021/04/29 10:45:32;;;;;;;8.60;6.00;;;;;;;14.21;56.72;92646.98;1777082;79;21194;-84
2021/04/29 10:48:08;;;;;;;9.58;5.83;;;;;;;14.22;55.98;92660.84;1842700;76;21198;-76
2021/04/29 10:50:44;;;;;;;7.17;5.80;;;;;;;14.15;55.68;92660.28;1840765;77;21776;-79
2021/04/29 10:53:13;;;;;;;9.73;6.20;;;;;;;14.06;55.91;92657.57;1842192;77;21115;-82
2021/04/29 10:55:44;;;;;;;11.15;6.47;;;;;;;13.97;56.59;92653.36;1851096;77;21112;-82
2021/04/29 10:58:23;;;;;;;11.15;7.05;;;;;;;13.95;57.28;92653.62;1845287;77;21172;-79
2021/04/29 11:01:07;;;;;;;11.30;6.62;;;;;;;14.03;56.68;92646.77;1844897;77;21150;-81
2021/04/29 11:03:37;;;;;;;8.00;5.97;;;;;;;14.14;56.96;92643.12;1844164;77;21198;-80
2021/04/29 11:06:27;;;;;;;10.88;6.28;;;;;;;14.28;57.85;92640.53;1842434;77;21170;-78
2021/04/29 11:08:56;;;;;;;26.65;7.72;;;;;;;14.37;55.51;92636.56;1840712;77;21060;-78
2021/04/29 11:11:35;;;;;;;9.23;6.40;;;;;;;14.36;57.36;92641.84;1842778;77;21163;-78
2021/04/29 11:14:07;;;;;;;8.48;6.62;;;;;;;14.45;56.41;92631.64;1846496;77;21290;-81
2021/04/29 11:16:44;;;;;;;8.68;6.15;;;;;;;14.52;57.07;92634.94;1847872;77;21475;-80
2021/04/29 11:19:38;;;;;;;9.08;6.87;;;;;;;14.62;54.94;92630.92;1848373;77;21147;-78
2021/04/29 11:22:12;;;;;;;12.75;6.17;;;;;;;14.53;55.34;92622.02;1817885;77;22557;-79
2021/04/29 11:24:47;;;;;;;9.40;6.63;;;;;;;14.53;56.33;92622.02;1851434;76;21183;-77
2021/04/29 11:27:29;;;;;;;;;;;;;;;14.62;56.26;92613.91;1851564;77;21039;-77
2021/04/29 11:30:09;;;;;;;9.05;6.20;;;;;;;14.63;54.96;92615.45;1854132;77;22079;-77
2021/04/29 11:32:37;;;;;;;12.05;6.22;;;;;;;14.65;55.41;92606.80;1858393;76;21184;-81
2021/04/29 11:35:19;;;;;;;7.67;6.15;;;;;;;14.69;54.86;92595.89;1830766;78;21064;-79
2021/04/29 11:37:47;;;;;;;9.85;6.42;;;;;;;14.80;55.30;92595.55;1829971;78;21053;-79
2021/04/29 11:40:14;;;;;;;8.95;6.60;;;;;;;14.95;55.60;92593.86;1831600;78;21140;-81
2021/04/29 11:42:55;;;;;;;8.83;6.47;;;;;;;15.09;53.54;92595.97;1831492;78;22147;-80